sensor_id;sensor_type;location;lat;lon;timestamp;temperature;humidity
15217;DHT22;7711;46.634;14.318;2023-02-01T00:02:09;-4.70;99.90
15217;DHT22;7711;46.634;14.318;2023-02-01T00:04:36;-4.70;99.90
15217;DHT22;7711;46.634;14.318;2023-02-01T00:07:03;-4.70;99.90
15217;DHT22;7711;46.634;14.318;2023-02-01T00:09:30;-4.70;99.90
15217;DHT22;7711;46.634;14.318;2023-02-01T00:11:59;-4.80;99.90
15217;DHT22;7711;46.634;14.318;2023-02-01T00:14:28;-4.80;99.90
15217;DHT22;7711;46.634;14.318;2023-02-01T00:16:55;-4.80;99.90
15217;DHT22;7711;46.634;14.318;2023-02-01T00:19:22;-4.90;99.90
15217;DHT22;7711;46.634;14.318;2023-02-01T00:21:49;-5.00;99.90
15217;DHT22;7711;46.634;14.318;2023-02-01T00:24:16;-5.10;99.90
15217;DHT22;7711;46.634;14.318;2023-02-01T00:26:44;-5.20;99.90
15217;DHT22;7711;46.634;14.318;2023-02-01T00:29:15;-5.20;1.00
15217;DHT22;7711;46.634;14.318;2023-02-01T00:31:43;-5.20;1.00
15217;DHT22;7711;46.634;14.318;2023-02-01T00:34:12;-5.20;1.00
15217;DHT22;7711;46.634;14.318;2023-02-01T00:36:39;-5.20;1.00
15217;DHT22;7711;46.634;14.318;2023-02-01T00:39:06;-5.30;1.00
15217;DHT22;7711;46.634;14.318;2023-02-01T00:41:33;-5.30;1.00
15217;DHT22;7711;46.634;14.318;2023-02-01T00:44:01;-5.30;1.00
15217;DHT22;7711;46.634;14.318;2023-02-01T00:46:29;-5.20;1.00
15217;DHT22;7711;46.634;14.318;2023-02-01T00:48:56;-5.20;1.00
15217;DHT22;7711;46.634;14.318;2023-02-01T00:51:25;-5.50;1.00
15217;DHT22;7711;46.634;14.318;2023-02-01T00:53:52;-5.50;1.00
15217;DHT22;7711;46.634;14.318;2023-02-01T00:56:20;-5.40;1.00
15217;DHT22;7711;46.634;14.318;2023-02-01T00:58:47;-5.30;1.00
15217;DHT22;7711;46.634;14.318;2023-02-01T01:01:16;-5.30;1.00
15217;DHT22;7711;46.634;14.318;2023-02-01T01:03:46;-5.20;1.00
15217;DHT22;7711;46.634;14.318;2023-02-01T01:06:15;-5.20;1.00
15217;DHT22;7711;46.634;14.318;2023-02-01T01:08:42;-5.10;1.00
15217;DHT22;7711;46.634;14.318;2023-02-01T01:11:11;-5.10;1.00
15217;DHT22;7711;46.634;14.318;2023-02-01T01:13:39;-5.10;1.00
15217;DHT22;7711;46.634;14.318;2023-02-01T01:16:07;-5.30;1.00
15217;DHT22;7711;46.634;14.318;2023-02-01T01:18:35;-5.30;1.00
15217;DHT22;7711;46.634;14.318;2023-02-01T01:21:06;-5.20;1.00
15217;DHT22;7711;46.634;14.318;2023-02-01T01:23:34;-5.10;1.00
15217;DHT22;7711;46.634;14.318;2023-02-01T01:26:05;-5.20;1.00
15217;DHT22;7711;46.634;14.318;2023-02-01T01:28:32;-5.30;1.00
15217;DHT22;7711;46.634;14.318;2023-02-01T01:30:59;-5.30;1.00
15217;DHT22;7711;46.634;14.318;2023-02-01T01:33:26;-5.30;1.00
15217;DHT22;7711;46.634;14.318;2023-02-01T01:35:53;-5.40;1.00
15217;DHT22;7711;46.634;14.318;2023-02-01T01:38:21;-5.50;1.00
15217;DHT22;7711;46.634;14.318;2023-02-01T01:40:48;-5.60;1.00
15217;DHT22;7711;46.634;14.318;2023-02-01T01:43:18;-5.60;1.00
15217;DHT22;7711;46.634;14.318;2023-02-01T01:45:48;-5.60;1.00
15217;DHT22;7711;46.634;14.318;2023-02-01T01:48:18;-5.70;1.00
15217;DHT22;7711;46.634;14.318;2023-02-01T01:50:50;-5.90;1.00
15217;DHT22;7711;46.634;14.318;2023-02-01T01:53:22;-5.60;1.00
15217;DHT22;7711;46.634;14.318;2023-02-01T01:55:51;-5.80;1.00
15217;DHT22;7711;46.634;14.318;2023-02-01T01:58:23;-5.80;1.00
15217;DHT22;7711;46.634;14.318;2023-02-01T02:00:52;-5.80;1.00
15217;DHT22;7711;46.634;14.318;2023-02-01T02:03:23;-5.90;1.00
15217;DHT22;7711;46.634;14.318;2023-02-01T02:05:53;-6.00;1.00
15217;DHT22;7711;46.634;14.318;2023-02-01T02:08:24;-6.00;1.00
15217;DHT22;7711;46.634;14.318;2023-02-01T02:10:51;-6.30;1.00
15217;DHT22;7711;46.634;14.318;2023-02-01T02:13:29;-6.30;1.00
15217;DHT22;7711;46.634;14.318;2023-02-01T02:16:16;-6.10;1.00
15217;DHT22;7711;46.634;14.318;2023-02-01T02:18:55;-6.00;1.00
15217;DHT22;7711;46.634;14.318;2023-02-01T02:21:33;-6.10;1.00
15217;DHT22;7711;46.634;14.318;2023-02-01T02:27:21;-6.10;1.00
15217;DHT22;7711;46.634;14.318;2023-02-01T02:30:23;-6.10;1.00
15217;DHT22;7711;46.634;14.318;2023-02-01T02:36:04;-6.30;1.00
15217;DHT22;7711;46.634;14.318;2023-02-01T02:38:38;-6.20;1.00
15217;DHT22;7711;46.634;14.318;2023-02-01T02:41:14;-6.30;1.00
15217;DHT22;7711;46.634;14.318;2023-02-01T02:44:09;-6.30;1.00
15217;DHT22;7711;46.634;14.318;2023-02-01T02:47:00;-6.40;1.00
15217;DHT22;7711;46.634;14.318;2023-02-01T02:49:51;-6.20;1.00
15217;DHT22;7711;46.634;14.318;2023-02-01T02:52:45;-6.20;1.00
15217;DHT22;7711;46.634;14.318;2023-02-01T02:55:33;-6.00;1.00
15217;DHT22;7711;46.634;14.318;2023-02-01T02:58:04;-5.90;1.00
15217;DHT22;7711;46.634;14.318;2023-02-01T03:00:50;-5.80;1.00
15217;DHT22;7711;46.634;14.318;2023-02-01T03:03:37;-5.70;1.00
15217;DHT22;7711;46.634;14.318;2023-02-01T03:06:23;-5.70;1.00
15217;DHT22;7711;46.634;14.318;2023-02-01T03:08:54;-5.70;1.00
15217;DHT22;7711;46.634;14.318;2023-02-01T03:11:24;-5.80;1.00
15217;DHT22;7711;46.634;14.318;2023-02-01T03:14:14;-5.90;1.00
15217;DHT22;7711;46.634;14.318;2023-02-01T03:16:46;-5.80;1.00
15217;DHT22;7711;46.634;14.318;2023-02-01T03:19:17;-5.90;1.00
15217;DHT22;7711;46.634;14.318;2023-02-01T03:21:49;-6.10;1.00
15217;DHT22;7711;46.634;14.318;2023-02-01T03:24:22;-6.00;1.00
15217;DHT22;7711;46.634;14.318;2023-02-01T03:27:02;-6.10;1.00
15217;DHT22;7711;46.634;14.318;2023-02-01T03:29:38;-6.20;1.00
15217;DHT22;7711;46.634;14.318;2023-02-01T03:32:07;-6.20;1.00
15217;DHT22;7711;46.634;14.318;2023-02-01T03:34:36;-6.10;1.00
15217;DHT22;7711;46.634;14.318;2023-02-01T03:37:07;-6.10;1.00
15217;DHT22;7711;46.634;14.318;2023-02-01T03:39:39;-6.10;1.00
15217;DHT22;7711;46.634;14.318;2023-02-01T03:42:12;-6.30;1.00
15217;DHT22;7711;46.634;14.318;2023-02-01T03:44:47;-6.50;1.00
15217;DHT22;7711;46.634;14.318;2023-02-01T03:47:18;-6.50;1.00
15217;DHT22;7711;46.634;14.318;2023-02-01T03:49:49;-6.60;1.00
15217;DHT22;7711;46.634;14.318;2023-02-01T03:52:20;-6.70;1.00
15217;DHT22;7711;46.634;14.318;2023-02-01T03:54:50;-6.90;1.00
15217;DHT22;7711;46.634;14.318;2023-02-01T03:57:23;-6.90;1.00
15217;DHT22;7711;46.634;14.318;2023-02-01T03:59:52;-6.90;1.00
15217;DHT22;7711;46.634;14.318;2023-02-01T04:02:19;-6.90;1.00
15217;DHT22;7711;46.634;14.318;2023-02-01T04:04:46;-6.80;1.00
15217;DHT22;7711;46.634;14.318;2023-02-01T04:07:13;-6.50;1.00
15217;DHT22;7711;46.634;14.318;2023-02-01T04:09:40;-7.20;1.00
15217;DHT22;7711;46.634;14.318;2023-02-01T04:12:09;-7.00;1.00
15217;DHT22;7711;46.634;14.318;2023-02-01T04:14:36;-7.20;1.00
15217;DHT22;7711;46.634;14.318;2023-02-01T04:17:03;-7.20;1.00
15217;DHT22;7711;46.634;14.318;2023-02-01T04:19:30;-7.20;1.00
15217;DHT22;7711;46.634;14.318;2023-02-01T04:21:57;-7.10;1.00
15217;DHT22;7711;46.634;14.318;2023-02-01T04:24:24;-7.20;1.00
15217;DHT22;7711;46.634;14.318;2023-02-01T04:26:51;-7.10;1.00
15217;DHT22;7711;46.634;14.318;2023-02-01T04:29:19;-7.20;1.00
15217;DHT22;7711;46.634;14.318;2023-02-01T04:31:46;-7.10;1.00
15217;DHT22;7711;46.634;14.318;2023-02-01T04:34:14;-7.10;1.00
15217;DHT22;7711;46.634;14.318;2023-02-01T04:36:41;-7.20;1.00
15217;DHT22;7711;46.634;14.318;2023-02-01T04:39:09;-7.30;1.00
15217;DHT22;7711;46.634;14.318;2023-02-01T04:41:36;-7.40;1.00
15217;DHT22;7711;46.634;14.318;2023-02-01T04:44:03;-7.20;1.00
15217;DHT22;7711;46.634;14.318;2023-02-01T04:46:32;-7.30;1.00
15217;DHT22;7711;46.634;14.318;2023-02-01T04:48:59;-7.40;1.00
15217;DHT22;7711;46.634;14.318;2023-02-01T04:51:26;-7.50;1.00
15217;DHT22;7711;46.634;14.318;2023-02-01T04:53:53;-7.50;1.00
15217;DHT22;7711;46.634;14.318;2023-02-01T04:56:21;-7.10;1.00
15217;DHT22;7711;46.634;14.318;2023-02-01T04:58:48;-7.50;1.00
15217;DHT22;7711;46.634;14.318;2023-02-01T05:01:15;-7.20;1.00
15217;DHT22;7711;46.634;14.318;2023-02-01T05:03:43;-7.40;1.00
15217;DHT22;7711;46.634;14.318;2023-02-01T05:06:10;-7.20;1.00
15217;DHT22;7711;46.634;14.318;2023-02-01T05:08:37;-7.50;1.00
15217;DHT22;7711;46.634;14.318;2023-02-01T05:11:04;-7.40;1.00
15217;DHT22;7711;46.634;14.318;2023-02-01T05:13:31;-7.50;1.00
15217;DHT22;7711;46.634;14.318;2023-02-01T05:16:16;-7.50;1.00
15217;DHT22;7711;46.634;14.318;2023-02-01T05:18:44;-7.60;1.00
15217;DHT22;7711;46.634;14.318;2023-02-01T05:21:12;-7.30;1.00
15217;DHT22;7711;46.634;14.318;2023-02-01T05:23:39;-7.70;1.00
15217;DHT22;7711;46.634;14.318;2023-02-01T05:26:20;-7.50;1.00
15217;DHT22;7711;46.634;14.318;2023-02-01T05:28:47;-7.90;1.00
15217;DHT22;7711;46.634;14.318;2023-02-01T05:31:14;-7.80;1.00
15217;DHT22;7711;46.634;14.318;2023-02-01T05:33:41;-7.90;1.00
15217;DHT22;7711;46.634;14.318;2023-02-01T05:36:09;-8.00;1.00
15217;DHT22;7711;46.634;14.318;2023-02-01T05:38:36;-8.10;1.00
15217;DHT22;7711;46.634;14.318;2023-02-01T05:41:03;-8.20;1.00
15217;DHT22;7711;46.634;14.318;2023-02-01T05:43:30;-8.30;1.00
15217;DHT22;7711;46.634;14.318;2023-02-01T05:45:57;-8.20;1.00
15217;DHT22;7711;46.634;14.318;2023-02-01T05:48:25;-8.30;1.00
15217;DHT22;7711;46.634;14.318;2023-02-01T05:50:52;-8.10;1.00
15217;DHT22;7711;46.634;14.318;2023-02-01T05:53:20;-8.20;1.00
15217;DHT22;7711;46.634;14.318;2023-02-01T05:55:47;-8.10;1.00
15217;DHT22;7711;46.634;14.318;2023-02-01T05:58:14;-8.30;1.00
15217;DHT22;7711;46.634;14.318;2023-02-01T06:00:41;-8.40;1.00
15217;DHT22;7711;46.634;14.318;2023-02-01T06:03:08;-8.30;1.00
15217;DHT22;7711;46.634;14.318;2023-02-01T06:05:35;-8.20;1.00
15217;DHT22;7711;46.634;14.318;2023-02-01T06:08:03;-8.20;1.00
15217;DHT22;7711;46.634;14.318;2023-02-01T06:10:34;-8.20;1.00
15217;DHT22;7711;46.634;14.318;2023-02-01T06:13:01;-8.30;1.00
15217;DHT22;7711;46.634;14.318;2023-02-01T06:15:29;-8.30;1.00
15217;DHT22;7711;46.634;14.318;2023-02-01T06:17:58;-8.30;1.00
15217;DHT22;7711;46.634;14.318;2023-02-01T06:20:25;-8.40;1.00
15217;DHT22;7711;46.634;14.318;2023-02-01T06:22:52;-8.10;1.00
15217;DHT22;7711;46.634;14.318;2023-02-01T06:25:19;-8.40;1.00
15217;DHT22;7711;46.634;14.318;2023-02-01T06:27:48;-8.00;1.00
15217;DHT22;7711;46.634;14.318;2023-02-01T06:30:15;-8.40;1.00
15217;DHT22;7711;46.634;14.318;2023-02-01T06:32:42;-8.40;1.00
15217;DHT22;7711;46.634;14.318;2023-02-01T06:35:10;-8.40;1.00
15217;DHT22;7711;46.634;14.318;2023-02-01T06:37:42;-8.20;1.00
15217;DHT22;7711;46.634;14.318;2023-02-01T06:40:10;-8.10;1.00
15217;DHT22;7711;46.634;14.318;2023-02-01T06:42:37;-8.20;1.00
15217;DHT22;7711;46.634;14.318;2023-02-01T06:45:07;-8.10;1.00
15217;DHT22;7711;46.634;14.318;2023-02-01T06:47:34;-8.10;1.00
15217;DHT22;7711;46.634;14.318;2023-02-01T06:50:01;-8.00;1.00
15217;DHT22;7711;46.634;14.318;2023-02-01T06:52:28;-8.10;1.00
15217;DHT22;7711;46.634;14.318;2023-02-01T06:54:55;-8.00;1.00
15217;DHT22;7711;46.634;14.318;2023-02-01T06:57:22;-8.10;99.90
15217;DHT22;7711;46.634;14.318;2023-02-01T06:59:49;-8.10;1.00
15217;DHT22;7711;46.634;14.318;2023-02-01T07:02:19;-8.00;99.90
15217;DHT22;7711;46.634;14.318;2023-02-01T07:04:47;-7.70;99.90
15217;DHT22;7711;46.634;14.318;2023-02-01T07:07:14;-8.10;99.90
15217;DHT22;7711;46.634;14.318;2023-02-01T07:09:41;-7.70;99.90
15217;DHT22;7711;46.634;14.318;2023-02-01T07:12:08;-7.90;99.90
15217;DHT22;7711;46.634;14.318;2023-02-01T07:14:35;-7.70;99.90
15217;DHT22;7711;46.634;14.318;2023-02-01T07:17:02;-7.80;99.90
15217;DHT22;7711;46.634;14.318;2023-02-01T07:19:30;-7.70;99.90
15217;DHT22;7711;46.634;14.318;2023-02-01T07:21:57;-7.60;99.90
15217;DHT22;7711;46.634;14.318;2023-02-01T07:24:24;-7.40;99.90
15217;DHT22;7711;46.634;14.318;2023-02-01T07:26:51;-7.40;99.90
15217;DHT22;7711;46.634;14.318;2023-02-01T07:29:18;-7.50;99.90
15217;DHT22;7711;46.634;14.318;2023-02-01T07:31:46;-7.40;99.90
15217;DHT22;7711;46.634;14.318;2023-02-01T07:34:13;-7.30;99.90
15217;DHT22;7711;46.634;14.318;2023-02-01T07:36:41;-7.40;99.90
15217;DHT22;7711;46.634;14.318;2023-02-01T07:39:08;-7.30;99.90
15217;DHT22;7711;46.634;14.318;2023-02-01T07:41:35;-7.20;99.90
15217;DHT22;7711;46.634;14.318;2023-02-01T07:44:02;-7.10;99.90
15217;DHT22;7711;46.634;14.318;2023-02-01T07:46:29;-7.00;99.90
15217;DHT22;7711;46.634;14.318;2023-02-01T07:48:56;-7.10;99.90
15217;DHT22;7711;46.634;14.318;2023-02-01T07:51:23;-7.20;99.90
15217;DHT22;7711;46.634;14.318;2023-02-01T07:53:52;-7.40;99.90
15217;DHT22;7711;46.634;14.318;2023-02-01T07:56:20;-7.20;99.90
15217;DHT22;7711;46.634;14.318;2023-02-01T07:58:48;-7.00;99.90
15217;DHT22;7711;46.634;14.318;2023-02-01T08:01:16;-7.10;99.90
15217;DHT22;7711;46.634;14.318;2023-02-01T08:03:45;-7.00;99.90
15217;DHT22;7711;46.634;14.318;2023-02-01T08:06:12;-7.00;99.90
15217;DHT22;7711;46.634;14.318;2023-02-01T08:08:39;-6.90;99.90
15217;DHT22;7711;46.634;14.318;2023-02-01T08:11:09;-6.80;99.90
15217;DHT22;7711;46.634;14.318;2023-02-01T08:13:36;-6.60;99.90
15217;DHT22;7711;46.634;14.318;2023-02-01T08:16:05;-6.30;99.90
15217;DHT22;7711;46.634;14.318;2023-02-01T08:18:33;-6.20;99.90
15217;DHT22;7711;46.634;14.318;2023-02-01T08:21:04;-6.00;99.90
15217;DHT22;7711;46.634;14.318;2023-02-01T08:23:31;-5.90;99.90
15217;DHT22;7711;46.634;14.318;2023-02-01T08:26:05;-5.60;99.90
15217;DHT22;7711;46.634;14.318;2023-02-01T08:28:33;-5.60;99.90
15217;DHT22;7711;46.634;14.318;2023-02-01T08:31:04;-5.40;99.90
15217;DHT22;7711;46.634;14.318;2023-02-01T08:33:31;-5.30;99.90
15217;DHT22;7711;46.634;14.318;2023-02-01T08:36:00;-5.20;99.90
15217;DHT22;7711;46.634;14.318;2023-02-01T08:38:27;-5.10;99.90
15217;DHT22;7711;46.634;14.318;2023-02-01T08:40:54;-5.10;99.90
15217;DHT22;7711;46.634;14.318;2023-02-01T08:43:21;-5.00;99.90
15217;DHT22;7711;46.634;14.318;2023-02-01T08:45:50;-4.80;99.90
15217;DHT22;7711;46.634;14.318;2023-02-01T08:48:20;-4.80;99.90
15217;DHT22;7711;46.634;14.318;2023-02-01T08:50:47;-4.80;99.90
15217;DHT22;7711;46.634;14.318;2023-02-01T08:53:14;-4.70;99.90
15217;DHT22;7711;46.634;14.318;2023-02-01T08:55:41;-4.60;99.90
15217;DHT22;7711;46.634;14.318;2023-02-01T08:58:08;-4.50;99.90
15217;DHT22;7711;46.634;14.318;2023-02-01T09:00:35;-4.40;99.90
15217;DHT22;7711;46.634;14.318;2023-02-01T09:03:03;-4.20;99.90
15217;DHT22;7711;46.634;14.318;2023-02-01T09:05:30;-4.10;99.90
15217;DHT22;7711;46.634;14.318;2023-02-01T09:07:58;-4.00;99.90
15217;DHT22;7711;46.634;14.318;2023-02-01T09:10:25;-3.90;99.90
15217;DHT22;7711;46.634;14.318;2023-02-01T09:12:52;-3.90;99.90
15217;DHT22;7711;46.634;14.318;2023-02-01T09:15:19;-3.90;99.90
15217;DHT22;7711;46.634;14.318;2023-02-01T09:17:46;-3.60;99.90
15217;DHT22;7711;46.634;14.318;2023-02-01T09:20:16;-3.60;99.90
15217;DHT22;7711;46.634;14.318;2023-02-01T09:22:44;-3.40;99.90
15217;DHT22;7711;46.634;14.318;2023-02-01T09:25:11;-3.30;99.90
15217;DHT22;7711;46.634;14.318;2023-02-01T09:27:38;-3.30;99.90
15217;DHT22;7711;46.634;14.318;2023-02-01T09:30:08;-3.20;99.90
15217;DHT22;7711;46.634;14.318;2023-02-01T09:32:35;-3.20;99.90
15217;DHT22;7711;46.634;14.318;2023-02-01T09:35:03;-3.10;99.90
15217;DHT22;7711;46.634;14.318;2023-02-01T09:37:31;-3.00;99.90
15217;DHT22;7711;46.634;14.318;2023-02-01T09:49:04;-2.60;99.90
15217;DHT22;7711;46.634;14.318;2023-02-01T09:51:36;-2.50;99.90
15217;DHT22;7711;46.634;14.318;2023-02-01T09:54:09;-2.30;99.90
15217;DHT22;7711;46.634;14.318;2023-02-01T09:56:40;-2.30;99.90
15217;DHT22;7711;46.634;14.318;2023-02-01T09:59:23;-2.20;99.90
15217;DHT22;7711;46.634;14.318;2023-02-01T10:01:50;-2.00;99.90
15217;DHT22;7711;46.634;14.318;2023-02-01T10:04:18;-1.90;99.90
15217;DHT22;7711;46.634;14.318;2023-02-01T10:07:00;-1.70;99.90
15217;DHT22;7711;46.634;14.318;2023-02-01T10:09:49;-1.60;99.90
15217;DHT22;7711;46.634;14.318;2023-02-01T10:15:30;-1.50;99.90
15217;DHT22;7711;46.634;14.318;2023-02-01T10:18:18;-1.40;99.90
15217;DHT22;7711;46.634;14.318;2023-02-01T10:20:56;-1.30;99.90
15217;DHT22;7711;46.634;14.318;2023-02-01T10:23:46;-1.00;99.90
15217;DHT22;7711;46.634;14.318;2023-02-01T10:26:20;-0.80;99.90
15217;DHT22;7711;46.634;14.318;2023-02-01T10:28:50;-0.70;99.90
15217;DHT22;7711;46.634;14.318;2023-02-01T10:31:18;-0.50;99.90
15217;DHT22;7711;46.634;14.318;2023-02-01T10:33:49;-0.50;99.90
15217;DHT22;7711;46.634;14.318;2023-02-01T10:36:23;-0.50;99.90
15217;DHT22;7711;46.634;14.318;2023-02-01T10:38:51;-0.40;99.90
15217;DHT22;7711;46.634;14.318;2023-02-01T10:41:22;-0.30;99.90
15217;DHT22;7711;46.634;14.318;2023-02-01T10:43:53;-0.10;99.90
15217;DHT22;7711;46.634;14.318;2023-02-01T10:46:22;-0.20;99.90
15217;DHT22;7711;46.634;14.318;2023-02-01T10:48:50;0.00;99.90
15217;DHT22;7711;46.634;14.318;2023-02-01T10:51:22;0.20;99.90
15217;DHT22;7711;46.634;14.318;2023-02-01T10:53:54;0.30;99.90
15217;DHT22;7711;46.634;14.318;2023-02-01T10:56:26;0.50;99.90
15217;DHT22;7711;46.634;14.318;2023-02-01T10:59:01;0.70;99.90
15217;DHT22;7711;46.634;14.318;2023-02-01T11:01:33;0.80;99.90
15217;DHT22;7711;46.634;14.318;2023-02-01T11:04:02;0.60;99.90
15217;DHT22;7711;46.634;14.318;2023-02-01T11:06:32;0.70;99.90
15217;DHT22;7711;46.634;14.318;2023-02-01T11:09:10;0.60;99.90
15217;DHT22;7711;46.634;14.318;2023-02-01T11:11:54;0.70;99.90
15217;DHT22;7711;46.634;14.318;2023-02-01T11:14:32;1.20;99.90
15217;DHT22;7711;46.634;14.318;2023-02-01T11:17:02;1.30;99.90
15217;DHT22;7711;46.634;14.318;2023-02-01T11:19:37;1.40;99.90
15217;DHT22;7711;46.634;14.318;2023-02-01T11:22:05;1.70;99.90
15217;DHT22;7711;46.634;14.318;2023-02-01T11:24:35;1.80;99.90
15217;DHT22;7711;46.634;14.318;2023-02-01T11:27:12;2.00;99.90
15217;DHT22;7711;46.634;14.318;2023-02-01T11:29:43;2.10;99.90
15217;DHT22;7711;46.634;14.318;2023-02-01T11:32:13;2.20;99.90
15217;DHT22;7711;46.634;14.318;2023-02-01T11:34:43;2.40;99.90
15217;DHT22;7711;46.634;14.318;2023-02-01T11:37:17;2.80;99.90
15217;DHT22;7711;46.634;14.318;2023-02-01T11:39:54;3.10;99.90
15217;DHT22;7711;46.634;14.318;2023-02-01T11:42:24;3.20;99.90
15217;DHT22;7711;46.634;14.318;2023-02-01T11:47:40;3.60;99.90
15217;DHT22;7711;46.634;14.318;2023-02-01T11:50:15;3.60;99.90
15217;DHT22;7711;46.634;14.318;2023-02-01T11:52:53;3.30;99.90
15217;DHT22;7711;46.634;14.318;2023-02-01T11:55:43;3.00;99.90
15217;DHT22;7711;46.634;14.318;2023-02-01T11:58:24;3.20;99.90
15217;DHT22;7711;46.634;14.318;2023-02-01T12:01:02;3.20;99.90
15217;DHT22;7711;46.634;14.318;2023-02-01T12:06:36;3.00;99.90
15217;DHT22;7711;46.634;14.318;2023-02-01T12:09:19;2.50;99.90
15217;DHT22;7711;46.634;14.318;2023-02-01T12:11:55;3.10;99.90
15217;DHT22;7711;46.634;14.318;2023-02-01T12:14:39;3.10;99.90
15217;DHT22;7711;46.634;14.318;2023-02-01T12:23:15;3.70;99.90
15217;DHT22;7711;46.634;14.318;2023-02-01T12:26:00;3.30;99.90
15217;DHT22;7711;46.634;14.318;2023-02-01T12:28:52;3.40;99.90
15217;DHT22;7711;46.634;14.318;2023-02-01T12:31:48;3.50;99.90
15217;DHT22;7711;46.634;14.318;2023-02-01T12:34:31;3.70;99.90
15217;DHT22;7711;46.634;14.318;2023-02-01T12:37:11;4.10;99.90
15217;DHT22;7711;46.634;14.318;2023-02-01T12:39:47;4.30;99.90
15217;DHT22;7711;46.634;14.318;2023-02-01T12:42:23;4.50;99.90
15217;DHT22;7711;46.634;14.318;2023-02-01T12:44:54;4.70;99.90
15217;DHT22;7711;46.634;14.318;2023-02-01T12:47:27;4.30;99.90
15217;DHT22;7711;46.634;14.318;2023-02-01T12:49:59;3.90;99.90
15217;DHT22;7711;46.634;14.318;2023-02-01T12:52:34;4.50;99.90
15217;DHT22;7711;46.634;14.318;2023-02-01T12:55:08;4.50;99.90
15217;DHT22;7711;46.634;14.318;2023-02-01T12:57:40;4.80;99.90
15217;DHT22;7711;46.634;14.318;2023-02-01T13:00:19;4.80;99.90
15217;DHT22;7711;46.634;14.318;2023-02-01T13:02:56;5.00;99.90
15217;DHT22;7711;46.634;14.318;2023-02-01T13:05:29;4.90;99.90
15217;DHT22;7711;46.634;14.318;2023-02-01T13:08:02;4.90;99.90
15217;DHT22;7711;46.634;14.318;2023-02-01T13:10:34;4.90;99.90
15217;DHT22;7711;46.634;14.318;2023-02-01T13:13:08;5.00;99.90
15217;DHT22;7711;46.634;14.318;2023-02-01T13:15:40;5.20;99.90
15217;DHT22;7711;46.634;14.318;2023-02-01T13:18:16;4.90;99.90
15217;DHT22;7711;46.634;14.318;2023-02-01T13:20:49;5.70;99.90
15217;DHT22;7711;46.634;14.318;2023-02-01T13:23:24;5.40;99.90
15217;DHT22;7711;46.634;14.318;2023-02-01T13:25:53;6.90;99.90
15217;DHT22;7711;46.634;14.318;2023-02-01T13:28:25;8.30;99.90
15217;DHT22;7711;46.634;14.318;2023-02-01T13:31:18;8.00;99.90
15217;DHT22;7711;46.634;14.318;2023-02-01T13:34:15;8.00;99.90
15217;DHT22;7711;46.634;14.318;2023-02-01T13:37:02;8.70;99.90
15217;DHT22;7711;46.634;14.318;2023-02-01T13:42:35;8.30;99.90
15217;DHT22;7711;46.634;14.318;2023-02-01T13:45:14;9.10;99.90
15217;DHT22;7711;46.634;14.318;2023-02-01T13:47:44;9.80;99.90
15217;DHT22;7711;46.634;14.318;2023-02-01T13:50:21;10.80;99.90
15217;DHT22;7711;46.634;14.318;2023-02-01T13:52:54;9.90;99.90
15217;DHT22;7711;46.634;14.318;2023-02-01T13:55:31;9.50;99.90
15217;DHT22;7711;46.634;14.318;2023-02-01T14:01:34;10.90;99.90
15217;DHT22;7711;46.634;14.318;2023-02-01T14:04:03;10.90;99.90
15217;DHT22;7711;46.634;14.318;2023-02-01T14:06:42;11.50;99.90
15217;DHT22;7711;46.634;14.318;2023-02-01T14:09:31;10.00;99.90
15217;DHT22;7711;46.634;14.318;2023-02-01T14:15:21;10.70;99.90
15217;DHT22;7711;46.634;14.318;2023-02-01T14:17:49;9.30;99.90
15217;DHT22;7711;46.634;14.318;2023-02-01T14:20:43;9.60;99.90
15217;DHT22;7711;46.634;14.318;2023-02-01T14:23:28;9.70;99.90
15217;DHT22;7711;46.634;14.318;2023-02-01T14:26:17;9.80;99.90
15217;DHT22;7711;46.634;14.318;2023-02-01T14:28:50;9.60;99.90
15217;DHT22;7711;46.634;14.318;2023-02-01T14:34:19;8.70;99.90
15217;DHT22;7711;46.634;14.318;2023-02-01T14:36:56;8.10;99.90
15217;DHT22;7711;46.634;14.318;2023-02-01T14:39:35;8.90;99.90
15217;DHT22;7711;46.634;14.318;2023-02-01T14:42:13;8.90;99.90
15217;DHT22;7711;46.634;14.318;2023-02-01T14:44:41;8.70;99.90
15217;DHT22;7711;46.634;14.318;2023-02-01T14:47:26;8.70;99.90
15217;DHT22;7711;46.634;14.318;2023-02-01T14:50:10;9.00;99.90
15217;DHT22;7711;46.634;14.318;2023-02-01T14:52:41;9.10;99.90
15217;DHT22;7711;46.634;14.318;2023-02-01T14:55:15;9.10;99.90
15217;DHT22;7711;46.634;14.318;2023-02-01T14:57:43;9.00;99.90
15217;DHT22;7711;46.634;14.318;2023-02-01T15:00:20;8.60;99.90
15217;DHT22;7711;46.634;14.318;2023-02-01T15:02:49;8.20;99.90
15217;DHT22;7711;46.634;14.318;2023-02-01T15:05:31;8.80;99.90
15217;DHT22;7711;46.634;14.318;2023-02-01T15:08:05;9.00;99.90
15217;DHT22;7711;46.634;14.318;2023-02-01T15:10:41;8.40;99.90
15217;DHT22;7711;46.634;14.318;2023-02-01T15:13:18;7.80;99.90
15217;DHT22;7711;46.634;14.318;2023-02-01T15:16:00;7.00;99.90
15217;DHT22;7711;46.634;14.318;2023-02-01T15:18:28;6.00;99.90
15217;DHT22;7711;46.634;14.318;2023-02-01T15:20:59;5.30;99.90
15217;DHT22;7711;46.634;14.318;2023-02-01T15:23:27;5.00;99.90
15217;DHT22;7711;46.634;14.318;2023-02-01T15:25:56;4.60;99.90
15217;DHT22;7711;46.634;14.318;2023-02-01T15:28:24;4.20;99.90
15217;DHT22;7711;46.634;14.318;2023-02-01T15:30:56;3.60;99.90
15217;DHT22;7711;46.634;14.318;2023-02-01T15:33:25;3.50;99.90
15217;DHT22;7711;46.634;14.318;2023-02-01T15:35:53;3.40;99.90
15217;DHT22;7711;46.634;14.318;2023-02-01T15:38:36;2.90;99.90
15217;DHT22;7711;46.634;14.318;2023-02-01T15:41:07;2.90;99.90
15217;DHT22;7711;46.634;14.318;2023-02-01T15:43:38;2.70;99.90
15217;DHT22;7711;46.634;14.318;2023-02-01T15:46:09;2.60;99.90
15217;DHT22;7711;46.634;14.318;2023-02-01T15:48:40;2.40;99.90
15217;DHT22;7711;46.634;14.318;2023-02-01T15:51:16;2.30;99.90
15217;DHT22;7711;46.634;14.318;2023-02-01T15:53:46;2.20;99.90
15217;DHT22;7711;46.634;14.318;2023-02-01T15:56:16;2.00;99.90
15217;DHT22;7711;46.634;14.318;2023-02-01T15:58:50;1.80;99.90
15217;DHT22;7711;46.634;14.318;2023-02-01T16:01:18;1.70;99.90
15217;DHT22;7711;46.634;14.318;2023-02-01T16:03:46;1.50;99.90
15217;DHT22;7711;46.634;14.318;2023-02-01T16:06:27;1.30;99.90
15217;DHT22;7711;46.634;14.318;2023-02-01T16:09:01;1.30;99.90
15217;DHT22;7711;46.634;14.318;2023-02-01T16:11:31;1.00;99.90
15217;DHT22;7711;46.634;14.318;2023-02-01T16:13:59;0.90;99.90
15217;DHT22;7711;46.634;14.318;2023-02-01T16:16:28;0.80;99.90
15217;DHT22;7711;46.634;14.318;2023-02-01T16:18:55;0.70;99.90
15217;DHT22;7711;46.634;14.318;2023-02-01T16:21:22;0.70;99.90
15217;DHT22;7711;46.634;14.318;2023-02-01T16:23:50;0.60;99.90
15217;DHT22;7711;46.634;14.318;2023-02-01T16:26:19;0.40;99.90
15217;DHT22;7711;46.634;14.318;2023-02-01T16:28:48;0.20;99.90
15217;DHT22;7711;46.634;14.318;2023-02-01T16:31:17;0.10;99.90
15217;DHT22;7711;46.634;14.318;2023-02-01T16:33:48;0.10;99.90
15217;DHT22;7711;46.634;14.318;2023-02-01T16:36:16;0.00;99.90
15217;DHT22;7711;46.634;14.318;2023-02-01T16:38:44;-0.20;99.90
15217;DHT22;7711;46.634;14.318;2023-02-01T16:41:13;-0.30;99.90
15217;DHT22;7711;46.634;14.318;2023-02-01T16:43:41;-0.30;99.90
15217;DHT22;7711;46.634;14.318;2023-02-01T16:46:14;-0.40;99.90
15217;DHT22;7711;46.634;14.318;2023-02-01T16:48:44;-0.50;99.90
15217;DHT22;7711;46.634;14.318;2023-02-01T16:51:14;-0.60;99.90
15217;DHT22;7711;46.634;14.318;2023-02-01T16:53:43;-0.70;99.90